Knjazevac, Serbia
Current Conditions -  °F | °C
As of 11:00 PM on Saturday 25 Oct 2014 (Local Time) from LYNI Reporting Station
Scattered Clouds Scattered Clouds  
Wind Chill: 37°   Ceiling: Unl
Heat Index: 41°   Visibility: 6mi
Dew Point: 28°   Wind: 6mph
Humidity: 61%   Direction: 340°NNW
Pressure: 30.24"   Gusts: NA
Location:  43.57°N, 22.26°E
Report Text: LYNI 252100Z 34005KT 300V020 9999 SCT033 05/M02 Q1024
Loading
Personal Weather Stations






























Interactive Weather Map
Tropical Storm Tracking
New forecast layout! Learn more

10-Day Weather Forecast

Advertisements
Track Severe Weather on mobile